»·PEaware :: SWA862 KPHX-KLAX

SWA862 :: KPHX-KLAX

FLIGHT INFORMATION

Flight Status: Arrived
Operator:
Southwest Airlines
More flights by this operator :: More flights under this callsign
Pilot: Maximilliano F. (23467)
Aircraft: AIRBUS A319
(A319)
More flights by this aircraft type
Origin: KPHX Phoenix Sky Harbor Intl
United States
Destination: KLAX Los Angeles Intl
United States
More flights between these airports :: More routes between these airports
Route: KEENS2 MESSI ESTWD HLYWD1
File this flight plan on PilotEdge
Remarks: RMK / SIMBRIEF
Altitude:
(Current/Filed)
38,000ft
Speed:
(Current/Filed)
446kts
Departed: 26-Oct-19 07:16 PM
Arrived: 26-Oct-19 08:21 PM
Distance/Time
Traveled:
321nm/1:04
Distance/Time
To Go:
Arrived

Flight Plot

Page will automatically refresh every two minutes.

Flight plan parsing failed; only flown route is shown


Map Options




Map Legend


Flown Route
Filed Route
Departure Airport
Arrival Airport
Navaid (VOR, NDB)
Fix

Horizontal Profiles

Position Reports

Time Latitude Longitude Heading Altitude Ground
Speed
26-Oct-19 18:20 33.433699 -111.994831 89 1140ft 0kts
26-Oct-19 18:21 33.433699 -111.994831 89 1140ft 0kts
26-Oct-19 18:22 33.433699 -111.994831 89 1140ft 0kts
26-Oct-19 18:23 33.433699 -111.994831 89 1140ft 0kts
26-Oct-19 18:24 33.433699 -111.994831 89 1140ft 0kts
26-Oct-19 18:25 33.433699 -111.994831 89 1140ft 0kts
26-Oct-19 18:26 33.433699 -111.994831 89 1140ft 0kts
26-Oct-19 18:27 33.433699 -111.994831 89 1140ft 0kts
26-Oct-19 18:28 33.433699 -111.994831 89 1140ft 0kts
26-Oct-19 18:29 33.433699 -111.994831 89 1140ft 0kts
26-Oct-19 18:30 33.433699 -111.994831 89 1140ft 0kts
26-Oct-19 18:31 33.433699 -111.994831 89 1140ft 0kts
26-Oct-19 18:32 33.433699 -111.994831 89 1140ft 0kts
26-Oct-19 18:33 33.433699 -111.994831 89 1140ft 0kts
26-Oct-19 18:34 33.433699 -111.994831 89 1140ft 0kts
26-Oct-19 18:35 33.433699 -111.994831 89 1140ft 0kts
26-Oct-19 18:36 33.433699 -111.994831 89 1140ft 0kts
26-Oct-19 18:37 33.433699 -111.994831 89 1140ft 0kts
26-Oct-19 18:38 33.433699 -111.994831 89 1140ft 0kts
26-Oct-19 18:39 33.433699 -111.994831 89 1140ft 0kts
26-Oct-19 18:40 33.433699 -111.994831 89 1140ft 0kts
26-Oct-19 18:41 33.433699 -111.994831 89 1140ft 0kts
26-Oct-19 18:42 33.433699 -111.994831 89 1140ft 0kts
26-Oct-19 18:43 33.433699 -111.994831 89 1140ft 0kts
26-Oct-19 18:44 33.433699 -111.994831 89 1140ft 0kts
26-Oct-19 18:45 33.433699 -111.994831 89 1140ft 0kts
26-Oct-19 18:46 33.433699 -111.994831 89 1140ft 0kts
26-Oct-19 18:47 33.433699 -111.994831 89 1140ft 0kts
26-Oct-19 18:48 33.433699 -111.994831 89 1140ft 0kts
26-Oct-19 18:49 33.433699 -111.994832 89 1140ft 0kts
26-Oct-19 18:50 33.433799 -111.995177 137 1140ft 2kts
26-Oct-19 18:51 33.434295 -111.995319 177 1140ft 0kts
26-Oct-19 18:52 33.434294 -111.995319 177 1140ft 0kts
26-Oct-19 18:53 33.434294 -111.995319 177 1140ft 0kts
26-Oct-19 18:54 33.434294 -111.995319 177 1140ft 0kts
26-Oct-19 18:55 33.434294 -111.995319 177 1140ft 0kts
26-Oct-19 18:56 33.434294 -111.995319 177 1140ft 0kts
26-Oct-19 18:57 33.434294 -111.995319 177 1140ft 0kts
26-Oct-19 18:58 33.434294 -111.995319 177 1140ft 0kts
26-Oct-19 18:59 33.434294 -111.995319 177 1140ft 0kts
26-Oct-19 19:00 33.434294 -111.995319 177 1140ft 0kts
26-Oct-19 19:01 33.434294 -111.995319 177 1140ft 0kts
26-Oct-19 19:02 33.433631 -111.995310 180 1140ft 6kts
26-Oct-19 19:03 33.433415 -111.995315 181 1140ft 1kts
26-Oct-19 19:04 33.432825 -111.997146 268 1140ft 12kts
26-Oct-19 19:05 33.432833 -112.002742 270 1140ft 18kts
26-Oct-19 19:06 33.432872 -112.009109 270 1140ft 17kts
26-Oct-19 19:07 33.432152 -112.012775 267 1140ft 14kts
26-Oct-19 19:08 33.432143 -112.018166 270 1140ft 17kts
26-Oct-19 19:09 33.432135 -112.024306 270 1140ft 19kts
26-Oct-19 19:10 33.432043 -112.026824 229 1140ft 0kts
26-Oct-19 19:11 33.432043 -112.026824 229 1140ft 0kts
26-Oct-19 19:12 33.432043 -112.026824 229 1140ft 0kts
26-Oct-19 19:13 33.432043 -112.026824 229 1140ft 0kts
26-Oct-19 19:14 33.431344 -112.026979 179 1140ft 6kts
26-Oct-19 19:15 33.431015 -112.022635 89 1140ft 81kts
26-Oct-19 19:16 33.435088 -111.967380 85 2954ft 186kts
26-Oct-19 19:17 33.434591 -111.894858 91 5457ft 244kts
26-Oct-19 19:18 33.390430 -111.844355 186 8767ft 246kts
26-Oct-19 19:19 33.352884 -111.902208 276 11881ft 253kts
26-Oct-19 19:20 33.361812 -111.992598 276 13869ft 306kts
26-Oct-19 19:21 33.376188 -112.098695 280 16537ft 331kts
26-Oct-19 19:22 33.392906 -112.210021 280 19223ft 344kts
26-Oct-19 19:23 33.409854 -112.324804 280 20824ft 351kts
26-Oct-19 19:24 33.426761 -112.440339 280 20838ft 351kts
26-Oct-19 19:25 33.443508 -112.555676 280 20840ft 352kts
26-Oct-19 19:26 33.450882 -112.673639 272 22977ft 363kts
26-Oct-19 19:27 33.455735 -112.796009 281 24921ft 373kts
26-Oct-19 19:28 33.492455 -112.913495 291 26710ft 382kts
26-Oct-19 19:29 33.533761 -113.031867 291 28283ft 390kts
26-Oct-19 19:30 33.575823 -113.152680 290 29677ft 398kts
26-Oct-19 19:31 33.618749 -113.276409 290 30917ft 405kts
26-Oct-19 19:32 33.661977 -113.401494 290 32034ft 410kts
26-Oct-19 19:33 33.705785 -113.528755 290 33039ft 412kts
26-Oct-19 19:34 33.748732 -113.653929 289 34203ft 407kts
26-Oct-19 19:35 33.791440 -113.779238 289 35247ft 403kts
26-Oct-19 19:36 33.833679 -113.903366 288 36130ft 399kts
26-Oct-19 19:37 33.875372 -114.026221 288 36808ft 397kts
26-Oct-19 19:38 33.910723 -114.151167 280 37327ft 393kts
26-Oct-19 19:39 33.932960 -114.279954 279 37729ft 393kts
26-Oct-19 19:40 33.951199 -114.387622 279 37786ft 394kts
26-Oct-19 19:41 33.972939 -114.516969 278 37786ft 395kts
26-Oct-19 19:43 33.994621 -114.646923 279 37786ft 396kts
26-Oct-19 19:44 34.015913 -114.775569 278 37786ft 393kts
26-Oct-19 19:45 34.037293 -114.905260 278 37786ft 394kts
26-Oct-19 19:46 34.058486 -115.034825 278 37787ft 395kts
26-Oct-19 19:47 34.079505 -115.164519 278 37795ft 396kts
26-Oct-19 19:48 34.100432 -115.294019 278 37803ft 396kts
26-Oct-19 19:49 34.121820 -115.424792 278 37807ft 397kts
26-Oct-19 19:50 34.142656 -115.555494 278 37809ft 397kts
26-Oct-19 19:51 34.157235 -115.686167 270 37809ft 397kts
26-Oct-19 19:52 34.151137 -115.818411 263 37813ft 397kts
26-Oct-19 19:53 34.138508 -115.950629 262 37813ft 397kts
26-Oct-19 19:54 34.125741 -116.081566 263 36364ft 391kts
26-Oct-19 19:55 34.112837 -116.211921 263 33562ft 396kts
26-Oct-19 19:56 34.099364 -116.344889 263 30528ft 401kts
26-Oct-19 19:57 34.085279 -116.475840 263 28234ft 388kts
26-Oct-19 19:58 34.071629 -116.602844 264 26053ft 376kts
26-Oct-19 19:59 34.060427 -116.725261 265 23755ft 371kts
26-Oct-19 20:00 34.049014 -116.847040 265 21775ft 359kts
26-Oct-19 20:01 34.035432 -116.964172 263 19937ft 345kts
26-Oct-19 20:02 34.021214 -117.076228 264 18220ft 332kts
26-Oct-19 20:02 34.010538 -117.166788 264 16865ft 321kts
26-Oct-19 20:04 33.995885 -117.289418 264 15092ft 308kts
26-Oct-19 20:05 33.983862 -117.391323 264 13610ft 300kts
26-Oct-19 20:05 33.974800 -117.473686 270 12394ft 293kts
26-Oct-19 20:06 33.991684 -117.569314 285 10993ft 285kts
26-Oct-19 20:08 34.016432 -117.674616 284 9997ft 266kts
26-Oct-19 20:08 34.017388 -117.746335 263 9216ft 248kts
26-Oct-19 20:09 34.009618 -117.826158 262 8225ft 229kts
26-Oct-19 20:10 34.002280 -117.901122 262 7181ft 218kts
26-Oct-19 20:11 33.995354 -117.971921 263 6256ft 203kts
26-Oct-19 20:12 33.990432 -118.033122 262 5457ft 195kts
26-Oct-19 20:13 33.984305 -118.095354 261 4611ft 194kts
26-Oct-19 20:14 33.977789 -118.157649 261 4009ft 194kts
26-Oct-19 20:15 33.971438 -118.217050 260 3121ft 177kts
26-Oct-19 20:16 33.965740 -118.271295 261 2228ft 152kts
26-Oct-19 20:17 33.960594 -118.320148 263 1490ft 144kts
26-Oct-19 20:18 33.955603 -118.368129 262 724ft 143kts
26-Oct-19 20:19 33.950876 -118.413867 263 127ft 81kts
26-Oct-19 20:20 33.949269 -118.419419 233 125ft 0kts
26-Oct-19 20:21 33.949057 -118.419764 233 125ft 6kts
26-Oct-19 20:22 33.947123 -118.422418 165 122ft 8kts
26-Oct-19 20:23 33.947189 -118.418782 82 124ft 13kts
26-Oct-19 20:24 33.947906 -118.413242 83 128ft 18kts

Navigation Log

Ident Type
Flight plan parsing failed, navigation log unavailable